TAF KCDS
KCDS 090524Z 0906/1006 22011KT P6SM BKN250 WS015/22045KT FM090900 24011KT P6SM SCT250 WS010/27040KT FM091500 27017G28KT P6SM FEW250 FM100200 22011KT P6SM SCT250 WS015/23040KT=
METAR KCDS
WC KCDS
WS KCDS
WV KCDS